sensor_id;sensor_type;location;lat;lon;timestamp;P1;durP1;ratioP1;P2;durP2;ratioP2
77733;SDS011;66902;41.720;44.796;2023-11-19T00:01:35;25.30;;;15.30;;
77733;SDS011;66902;41.720;44.796;2023-11-19T00:04:09;19.70;;;13.70;;
77733;SDS011;66902;41.720;44.796;2023-11-19T00:06:43;23.40;;;13.80;;
77733;SDS011;66902;41.720;44.796;2023-11-19T00:09:16;18.40;;;13.50;;
77733;SDS011;66902;41.720;44.796;2023-11-19T00:11:50;22.60;;;14.20;;
77733;SDS011;66902;41.720;44.796;2023-11-19T00:14:25;28.30;;;16.00;;
77733;SDS011;66902;41.720;44.796;2023-11-19T00:17:00;18.30;;;13.30;;
77733;SDS011;66902;41.720;44.796;2023-11-19T00:19:34;21.40;;;13.40;;
77733;SDS011;66902;41.720;44.796;2023-11-19T00:22:08;23.40;;;13.60;;
77733;SDS011;66902;41.720;44.796;2023-11-19T00:24:42;18.10;;;13.40;;
77733;SDS011;66902;41.720;44.796;2023-11-19T00:27:16;23.30;;;13.20;;
77733;SDS011;66902;41.720;44.796;2023-11-19T00:29:51;17.70;;;13.80;;
77733;SDS011;66902;41.720;44.796;2023-11-19T00:32:27;23.10;;;14.00;;
77733;SDS011;66902;41.720;44.796;2023-11-19T00:35:01;20.80;;;13.50;;
77733;SDS011;66902;41.720;44.796;2023-11-19T00:37:37;17.50;;;12.80;;
77733;SDS011;66902;41.720;44.796;2023-11-19T00:40:15;21.20;;;13.40;;
77733;SDS011;66902;41.720;44.796;2023-11-19T00:42:51;19.10;;;13.80;;
77733;SDS011;66902;41.720;44.796;2023-11-19T00:45:30;21.10;;;12.90;;
77733;SDS011;66902;41.720;44.796;2023-11-19T00:48:05;18.80;;;12.90;;
77733;SDS011;66902;41.720;44.796;2023-11-19T00:50:38;25.30;;;13.40;;
77733;SDS011;66902;41.720;44.796;2023-11-19T00:53:17;20.20;;;13.50;;
77733;SDS011;66902;41.720;44.796;2023-11-19T00:55:52;15.30;;;11.50;;
77733;SDS011;66902;41.720;44.796;2023-11-19T00:58:27;23.60;;;13.60;;
77733;SDS011;66902;41.720;44.796;2023-11-19T01:01:02;15.60;;;11.90;;
77733;SDS011;66902;41.720;44.796;2023-11-19T01:03:38;21.60;;;12.50;;
77733;SDS011;66902;41.720;44.796;2023-11-19T01:06:12;19.40;;;12.40;;
77733;SDS011;66902;41.720;44.796;2023-11-19T01:08:46;27.20;;;13.20;;
77733;SDS011;66902;41.720;44.796;2023-11-19T01:11:23;15.30;;;12.30;;
77733;SDS011;66902;41.720;44.796;2023-11-19T01:13:58;18.40;;;13.90;;
77733;SDS011;66902;41.720;44.796;2023-11-19T01:16:32;13.80;;;12.00;;
77733;SDS011;66902;41.720;44.796;2023-11-19T01:19:08;24.50;;;13.20;;
77733;SDS011;66902;41.720;44.796;2023-11-19T01:21:47;15.30;;;11.50;;
77733;SDS011;66902;41.720;44.796;2023-11-19T01:24:22;20.70;;;13.10;;
77733;SDS011;66902;41.720;44.796;2023-11-19T01:26:59;20.10;;;11.50;;
77733;SDS011;66902;41.720;44.796;2023-11-19T01:29:33;14.60;;;12.30;;
77733;SDS011;66902;41.720;44.796;2023-11-19T01:32:09;16.80;;;13.20;;
77733;SDS011;66902;41.720;44.796;2023-11-19T01:34:45;19.40;;;12.00;;
77733;SDS011;66902;41.720;44.796;2023-11-19T01:37:19;16.70;;;11.30;;
77733;SDS011;66902;41.720;44.796;2023-11-19T01:39:53;19.00;;;13.60;;
77733;SDS011;66902;41.720;44.796;2023-11-19T01:42:28;21.20;;;12.80;;
77733;SDS011;66902;41.720;44.796;2023-11-19T01:45:04;23.00;;;12.30;;
77733;SDS011;66902;41.720;44.796;2023-11-19T01:47:40;14.50;;;11.80;;
77733;SDS011;66902;41.720;44.796;2023-11-19T01:50:15;23.40;;;13.50;;
77733;SDS011;66902;41.720;44.796;2023-11-19T01:52:50;20.40;;;11.90;;
77733;SDS011;66902;41.720;44.796;2023-11-19T01:55:28;20.90;;;12.80;;
77733;SDS011;66902;41.720;44.796;2023-11-19T01:58:03;20.30;;;13.50;;
77733;SDS011;66902;41.720;44.796;2023-11-19T02:00:39;27.10;;;13.20;;
77733;SDS011;66902;41.720;44.796;2023-11-19T02:03:15;18.80;;;14.30;;
77733;SDS011;66902;41.720;44.796;2023-11-19T02:05:51;22.70;;;13.90;;
77733;SDS011;66902;41.720;44.796;2023-11-19T02:08:26;21.50;;;13.00;;
77733;SDS011;66902;41.720;44.796;2023-11-19T02:11:01;21.10;;;12.90;;
77733;SDS011;66902;41.720;44.796;2023-11-19T02:13:38;20.40;;;12.70;;
77733;SDS011;66902;41.720;44.796;2023-11-19T02:16:14;20.30;;;12.80;;
77733;SDS011;66902;41.720;44.796;2023-11-19T02:18:49;25.10;;;13.00;;
77733;SDS011;66902;41.720;44.796;2023-11-19T02:21:23;19.70;;;12.40;;
77733;SDS011;66902;41.720;44.796;2023-11-19T02:23:59;15.80;;;12.50;;
77733;SDS011;66902;41.720;44.796;2023-11-19T02:26:39;17.50;;;12.00;;
77733;SDS011;66902;41.720;44.796;2023-11-19T02:29:15;25.20;;;13.20;;
77733;SDS011;66902;41.720;44.796;2023-11-19T02:31:50;30.20;;;12.40;;
77733;SDS011;66902;41.720;44.796;2023-11-19T02:34:27;14.80;;;11.40;;
77733;SDS011;66902;41.720;44.796;2023-11-19T02:37:01;17.50;;;12.70;;
77733;SDS011;66902;41.720;44.796;2023-11-19T02:39:37;16.70;;;11.80;;
77733;SDS011;66902;41.720;44.796;2023-11-19T02:42:12;18.10;;;11.30;;
77733;SDS011;66902;41.720;44.796;2023-11-19T02:44:46;15.10;;;8.90;;
77733;SDS011;66902;41.720;44.796;2023-11-19T02:47:22;11.90;;;8.70;;
77733;SDS011;66902;41.720;44.796;2023-11-19T02:49:58;9.60;;;8.50;;
77733;SDS011;66902;41.720;44.796;2023-11-19T02:52:33;13.90;;;7.70;;
77733;SDS011;66902;41.720;44.796;2023-11-19T02:55:10;11.20;;;7.70;;
77733;SDS011;66902;41.720;44.796;2023-11-19T02:57:45;13.60;;;8.20;;
77733;SDS011;66902;41.720;44.796;2023-11-19T03:00:21;13.20;;;7.80;;
77733;SDS011;66902;41.720;44.796;2023-11-19T03:03:02;18.20;;;9.30;;
77733;SDS011;66902;41.720;44.796;2023-11-19T03:05:49;16.10;;;10.00;;
77733;SDS011;66902;41.720;44.796;2023-11-19T03:08:24;17.30;;;11.20;;
77733;SDS011;66902;41.720;44.796;2023-11-19T03:10:58;18.60;;;11.60;;
77733;SDS011;66902;41.720;44.796;2023-11-19T03:13:37;13.20;;;9.40;;
77733;SDS011;66902;41.720;44.796;2023-11-19T03:16:12;18.30;;;10.40;;
77733;SDS011;66902;41.720;44.796;2023-11-19T03:18:47;15.40;;;11.20;;
77733;SDS011;66902;41.720;44.796;2023-11-19T03:21:21;17.00;;;11.50;;
77733;SDS011;66902;41.720;44.796;2023-11-19T03:24:01;13.40;;;9.40;;
77733;SDS011;66902;41.720;44.796;2023-11-19T03:26:37;16.60;;;10.90;;
77733;SDS011;66902;41.720;44.796;2023-11-19T03:29:13;18.30;;;11.90;;
77733;SDS011;66902;41.720;44.796;2023-11-19T03:31:47;19.60;;;11.80;;
77733;SDS011;66902;41.720;44.796;2023-11-19T03:34:22;18.70;;;11.90;;
77733;SDS011;66902;41.720;44.796;2023-11-19T03:36:57;15.50;;;11.20;;
77733;SDS011;66902;41.720;44.796;2023-11-19T03:39:32;18.50;;;12.20;;
77733;SDS011;66902;41.720;44.796;2023-11-19T03:42:08;15.00;;;11.70;;
77733;SDS011;66902;41.720;44.796;2023-11-19T03:44:43;17.70;;;12.00;;
77733;SDS011;66902;41.720;44.796;2023-11-19T03:47:20;24.30;;;14.20;;
77733;SDS011;66902;41.720;44.796;2023-11-19T03:49:53;16.50;;;12.10;;
77733;SDS011;66902;41.720;44.796;2023-11-19T03:52:29;17.60;;;9.90;;
77733;SDS011;66902;41.720;44.796;2023-11-19T03:55:14;30.20;;;12.70;;
77733;SDS011;66902;41.720;44.796;2023-11-19T03:57:48;15.00;;;11.60;;
77733;SDS011;66902;41.720;44.796;2023-11-19T04:00:25;13.30;;;10.50;;
77733;SDS011;66902;41.720;44.796;2023-11-19T04:02:59;17.10;;;11.20;;
77733;SDS011;66902;41.720;44.796;2023-11-19T04:05:35;15.40;;;11.40;;
77733;SDS011;66902;41.720;44.796;2023-11-19T04:08:11;27.80;;;13.10;;
77733;SDS011;66902;41.720;44.796;2023-11-19T04:10:46;21.40;;;12.90;;
77733;SDS011;66902;41.720;44.796;2023-11-19T04:13:22;22.20;;;13.40;;
77733;SDS011;66902;41.720;44.796;2023-11-19T04:15:58;24.70;;;13.10;;
77733;SDS011;66902;41.720;44.796;2023-11-19T04:18:32;22.50;;;12.40;;
77733;SDS011;66902;41.720;44.796;2023-11-19T04:21:08;18.20;;;12.50;;
77733;SDS011;66902;41.720;44.796;2023-11-19T04:23:43;17.40;;;11.50;;
77733;SDS011;66902;41.720;44.796;2023-11-19T04:26:18;21.00;;;11.90;;
77733;SDS011;66902;41.720;44.796;2023-11-19T04:28:53;22.30;;;12.00;;
77733;SDS011;66902;41.720;44.796;2023-11-19T04:31:31;25.10;;;14.00;;
77733;SDS011;66902;41.720;44.796;2023-11-19T04:36:40;15.90;;;14.10;;
77733;SDS011;66902;41.720;44.796;2023-11-19T04:39:16;14.80;;;12.10;;
77733;SDS011;66902;41.720;44.796;2023-11-19T04:41:51;16.80;;;11.50;;
77733;SDS011;66902;41.720;44.796;2023-11-19T04:44:25;17.90;;;12.90;;
77733;SDS011;66902;41.720;44.796;2023-11-19T04:47:00;17.70;;;12.10;;
77733;SDS011;66902;41.720;44.796;2023-11-19T04:49:35;19.70;;;13.00;;
77733;SDS011;66902;41.720;44.796;2023-11-19T04:52:15;28.10;;;13.90;;
77733;SDS011;66902;41.720;44.796;2023-11-19T04:54:49;22.70;;;15.00;;
77733;SDS011;66902;41.720;44.796;2023-11-19T04:57:25;19.40;;;13.50;;
77733;SDS011;66902;41.720;44.796;2023-11-19T04:59:58;20.10;;;12.70;;
77733;SDS011;66902;41.720;44.796;2023-11-19T05:05:21;17.20;;;12.70;;
77733;SDS011;66902;41.720;44.796;2023-11-19T05:07:55;27.70;;;12.40;;
77733;SDS011;66902;41.720;44.796;2023-11-19T05:10:32;19.30;;;12.10;;
77733;SDS011;66902;41.720;44.796;2023-11-19T05:13:07;14.50;;;11.40;;
77733;SDS011;66902;41.720;44.796;2023-11-19T05:15:42;19.90;;;10.40;;
77733;SDS011;66902;41.720;44.796;2023-11-19T05:18:16;14.50;;;11.40;;
77733;SDS011;66902;41.720;44.796;2023-11-19T05:20:50;18.30;;;13.60;;
77733;SDS011;66902;41.720;44.796;2023-11-19T05:23:23;16.10;;;11.40;;
77733;SDS011;66902;41.720;44.796;2023-11-19T05:25:57;18.70;;;13.60;;
77733;SDS011;66902;41.720;44.796;2023-11-19T05:31:06;17.30;;;12.60;;
77733;SDS011;66902;41.720;44.796;2023-11-19T05:33:40;19.80;;;12.60;;
77733;SDS011;66902;41.720;44.796;2023-11-19T05:36:16;22.80;;;14.40;;
77733;SDS011;66902;41.720;44.796;2023-11-19T05:38:51;15.60;;;12.10;;
77733;SDS011;66902;41.720;44.796;2023-11-19T05:41:25;17.90;;;13.70;;
77733;SDS011;66902;41.720;44.796;2023-11-19T05:43:58;17.80;;;12.10;;
77733;SDS011;66902;41.720;44.796;2023-11-19T05:46:32;17.70;;;14.30;;
77733;SDS011;66902;41.720;44.796;2023-11-19T05:49:11;16.20;;;12.30;;
77733;SDS011;66902;41.720;44.796;2023-11-19T05:51:44;17.70;;;13.30;;
77733;SDS011;66902;41.720;44.796;2023-11-19T05:54:18;20.90;;;14.00;;
77733;SDS011;66902;41.720;44.796;2023-11-19T05:56:51;26.10;;;15.00;;
77733;SDS011;66902;41.720;44.796;2023-11-19T05:59:27;17.00;;;12.80;;
77733;SDS011;66902;41.720;44.796;2023-11-19T06:02:00;28.50;;;14.40;;
77733;SDS011;66902;41.720;44.796;2023-11-19T06:04:34;18.60;;;13.00;;
77733;SDS011;66902;41.720;44.796;2023-11-19T06:07:07;17.90;;;15.00;;
77733;SDS011;66902;41.720;44.796;2023-11-19T06:09:41;22.00;;;15.20;;
77733;SDS011;66902;41.720;44.796;2023-11-19T06:12:14;24.20;;;15.10;;
77733;SDS011;66902;41.720;44.796;2023-11-19T06:14:48;17.70;;;15.70;;
77733;SDS011;66902;41.720;44.796;2023-11-19T06:17:21;20.00;;;16.00;;
77733;SDS011;66902;41.720;44.796;2023-11-19T06:19:55;19.90;;;13.20;;
77733;SDS011;66902;41.720;44.796;2023-11-19T06:22:29;17.00;;;11.70;;
77733;SDS011;66902;41.720;44.796;2023-11-19T06:25:03;14.60;;;12.10;;
77733;SDS011;66902;41.720;44.796;2023-11-19T06:27:38;15.60;;;13.30;;
77733;SDS011;66902;41.720;44.796;2023-11-19T06:30:12;20.30;;;14.10;;
77733;SDS011;66902;41.720;44.796;2023-11-19T06:32:46;20.10;;;13.60;;
77733;SDS011;66902;41.720;44.796;2023-11-19T06:35:20;19.40;;;17.30;;
77733;SDS011;66902;41.720;44.796;2023-11-19T06:37:53;28.80;;;17.20;;
77733;SDS011;66902;41.720;44.796;2023-11-19T06:40:28;22.10;;;16.00;;
77733;SDS011;66902;41.720;44.796;2023-11-19T06:43:01;28.50;;;17.10;;
77733;SDS011;66902;41.720;44.796;2023-11-19T06:45:35;25.20;;;19.30;;
77733;SDS011;66902;41.720;44.796;2023-11-19T06:48:08;23.00;;;15.50;;
77733;SDS011;66902;41.720;44.796;2023-11-19T06:50:42;24.70;;;16.70;;
77733;SDS011;66902;41.720;44.796;2023-11-19T06:53:17;24.10;;;16.20;;
77733;SDS011;66902;41.720;44.796;2023-11-19T06:55:50;18.70;;;15.70;;
77733;SDS011;66902;41.720;44.796;2023-11-19T06:58:23;26.50;;;15.40;;
77733;SDS011;66902;41.720;44.796;2023-11-19T07:00:58;24.90;;;17.60;;
77733;SDS011;66902;41.720;44.796;2023-11-19T07:03:32;28.90;;;18.40;;
77733;SDS011;66902;41.720;44.796;2023-11-19T07:06:07;24.30;;;16.00;;
77733;SDS011;66902;41.720;44.796;2023-11-19T07:11:16;21.70;;;15.60;;
77733;SDS011;66902;41.720;44.796;2023-11-19T07:13:52;21.00;;;15.40;;
77733;SDS011;66902;41.720;44.796;2023-11-19T07:16:25;25.70;;;17.90;;
77733;SDS011;66902;41.720;44.796;2023-11-19T07:18:59;33.30;;;20.50;;
77733;SDS011;66902;41.720;44.796;2023-11-19T07:21:35;29.00;;;22.40;;
77733;SDS011;66902;41.720;44.796;2023-11-19T07:24:15;27.90;;;19.50;;
77733;SDS011;66902;41.720;44.796;2023-11-19T07:26:48;29.90;;;21.20;;
77733;SDS011;66902;41.720;44.796;2023-11-19T07:29:22;27.90;;;21.50;;
77733;SDS011;66902;41.720;44.796;2023-11-19T07:31:59;32.80;;;18.60;;
77733;SDS011;66902;41.720;44.796;2023-11-19T07:34:35;27.70;;;18.40;;
77733;SDS011;66902;41.720;44.796;2023-11-19T07:37:09;25.40;;;19.00;;
77733;SDS011;66902;41.720;44.796;2023-11-19T07:39:43;27.00;;;18.80;;
77733;SDS011;66902;41.720;44.796;2023-11-19T07:42:16;27.10;;;19.00;;
77733;SDS011;66902;41.720;44.796;2023-11-19T07:44:51;29.10;;;20.30;;
77733;SDS011;66902;41.720;44.796;2023-11-19T07:47:28;30.20;;;21.40;;
77733;SDS011;66902;41.720;44.796;2023-11-19T07:50:01;29.00;;;23.30;;
77733;SDS011;66902;41.720;44.796;2023-11-19T07:52:36;29.10;;;22.30;;
77733;SDS011;66902;41.720;44.796;2023-11-19T07:55:11;29.30;;;20.70;;
77733;SDS011;66902;41.720;44.796;2023-11-19T07:57:44;27.20;;;22.00;;
77733;SDS011;66902;41.720;44.796;2023-11-19T08:00:19;31.10;;;21.50;;
77733;SDS011;66902;41.720;44.796;2023-11-19T08:02:53;33.00;;;21.30;;
77733;SDS011;66902;41.720;44.796;2023-11-19T08:05:26;28.30;;;20.10;;
77733;SDS011;66902;41.720;44.796;2023-11-19T08:08:00;31.00;;;22.80;;
77733;SDS011;66902;41.720;44.796;2023-11-19T08:10:34;25.10;;;22.50;;
77733;SDS011;66902;41.720;44.796;2023-11-19T08:13:08;28.10;;;23.80;;
77733;SDS011;66902;41.720;44.796;2023-11-19T08:15:41;33.90;;;25.30;;
77733;SDS011;66902;41.720;44.796;2023-11-19T08:18:14;34.00;;;26.60;;
77733;SDS011;66902;41.720;44.796;2023-11-19T08:20:48;32.60;;;26.20;;
77733;SDS011;66902;41.720;44.796;2023-11-19T08:23:23;39.30;;;27.90;;
77733;SDS011;66902;41.720;44.796;2023-11-19T08:25:58;30.50;;;27.30;;
77733;SDS011;66902;41.720;44.796;2023-11-19T08:28:32;41.60;;;30.20;;
77733;SDS011;66902;41.720;44.796;2023-11-19T08:31:06;46.60;;;32.00;;
77733;SDS011;66902;41.720;44.796;2023-11-19T08:33:39;34.30;;;29.10;;
77733;SDS011;66902;41.720;44.796;2023-11-19T08:36:16;43.60;;;29.90;;
77733;SDS011;66902;41.720;44.796;2023-11-19T08:38:50;36.00;;;25.10;;
77733;SDS011;66902;41.720;44.796;2023-11-19T08:41:24;32.60;;;26.50;;
77733;SDS011;66902;41.720;44.796;2023-11-19T08:43:57;32.10;;;25.50;;
77733;SDS011;66902;41.720;44.796;2023-11-19T08:46:31;42.70;;;27.00;;
77733;SDS011;66902;41.720;44.796;2023-11-19T08:49:05;33.00;;;26.00;;
77733;SDS011;66902;41.720;44.796;2023-11-19T08:51:39;35.30;;;27.30;;
77733;SDS011;66902;41.720;44.796;2023-11-19T08:54:13;30.90;;;25.10;;
77733;SDS011;66902;41.720;44.796;2023-11-19T08:56:46;34.70;;;25.40;;
77733;SDS011;66902;41.720;44.796;2023-11-19T08:59:21;35.70;;;25.50;;
77733;SDS011;66902;41.720;44.796;2023-11-19T09:01:54;42.10;;;30.90;;
77733;SDS011;66902;41.720;44.796;2023-11-19T09:04:28;30.00;;;25.80;;
77733;SDS011;66902;41.720;44.796;2023-11-19T09:07:01;30.90;;;24.50;;
77733;SDS011;66902;41.720;44.796;2023-11-19T09:09:35;30.20;;;25.30;;
77733;SDS011;66902;41.720;44.796;2023-11-19T09:12:08;28.80;;;22.00;;
77733;SDS011;66902;41.720;44.796;2023-11-19T09:14:44;29.40;;;21.60;;
77733;SDS011;66902;41.720;44.796;2023-11-19T09:17:18;29.00;;;23.40;;
77733;SDS011;66902;41.720;44.796;2023-11-19T09:19:51;24.00;;;21.40;;
77733;SDS011;66902;41.720;44.796;2023-11-19T09:22:25;30.70;;;20.70;;
77733;SDS011;66902;41.720;44.796;2023-11-19T09:24:59;34.00;;;22.80;;
77733;SDS011;66902;41.720;44.796;2023-11-19T09:27:32;26.00;;;20.30;;
77733;SDS011;66902;41.720;44.796;2023-11-19T09:30:09;25.70;;;19.20;;
77733;SDS011;66902;41.720;44.796;2023-11-19T09:32:43;20.00;;;17.90;;
77733;SDS011;66902;41.720;44.796;2023-11-19T09:35:18;25.50;;;18.80;;
77733;SDS011;66902;41.720;44.796;2023-11-19T09:37:51;29.00;;;20.40;;
77733;SDS011;66902;41.720;44.796;2023-11-19T09:40:25;26.10;;;21.50;;
77733;SDS011;66902;41.720;44.796;2023-11-19T09:43:01;32.80;;;20.50;;
77733;SDS011;66902;41.720;44.796;2023-11-19T09:45:37;25.60;;;21.70;;
77733;SDS011;66902;41.720;44.796;2023-11-19T09:48:16;24.00;;;19.90;;
77733;SDS011;66902;41.720;44.796;2023-11-19T09:50:50;27.50;;;20.30;;
77733;SDS011;66902;41.720;44.796;2023-11-19T09:53:24;35.10;;;22.10;;
77733;SDS011;66902;41.720;44.796;2023-11-19T09:55:59;28.10;;;22.30;;
77733;SDS011;66902;41.720;44.796;2023-11-19T09:58:33;26.00;;;22.00;;
77733;SDS011;66902;41.720;44.796;2023-11-19T10:01:07;26.90;;;22.70;;
77733;SDS011;66902;41.720;44.796;2023-11-19T10:03:45;29.30;;;22.60;;
77733;SDS011;66902;41.720;44.796;2023-11-19T10:06:20;31.00;;;22.60;;
77733;SDS011;66902;41.720;44.796;2023-11-19T10:08:54;32.90;;;24.10;;
77733;SDS011;66902;41.720;44.796;2023-11-19T10:11:31;37.80;;;24.90;;
77733;SDS011;66902;41.720;44.796;2023-11-19T10:14:05;28.90;;;23.80;;
77733;SDS011;66902;41.720;44.796;2023-11-19T10:16:38;24.70;;;19.90;;
77733;SDS011;66902;41.720;44.796;2023-11-19T10:19:14;28.40;;;19.60;;
77733;SDS011;66902;41.720;44.796;2023-11-19T10:21:52;19.70;;;16.20;;
77733;SDS011;66902;41.720;44.796;2023-11-19T10:24:32;21.20;;;18.10;;
77733;SDS011;66902;41.720;44.796;2023-11-19T10:27:14;24.10;;;19.40;;
77733;SDS011;66902;41.720;44.796;2023-11-19T10:29:48;20.60;;;17.20;;
77733;SDS011;66902;41.720;44.796;2023-11-19T10:32:23;24.60;;;19.30;;
77733;SDS011;66902;41.720;44.796;2023-11-19T10:35:06;21.80;;;18.60;;
77733;SDS011;66902;41.720;44.796;2023-11-19T10:37:42;26.80;;;18.70;;
77733;SDS011;66902;41.720;44.796;2023-11-19T10:40:16;31.60;;;22.00;;
77733;SDS011;66902;41.720;44.796;2023-11-19T10:42:54;24.30;;;19.10;;
77733;SDS011;66902;41.720;44.796;2023-11-19T10:45:36;28.80;;;17.70;;
77733;SDS011;66902;41.720;44.796;2023-11-19T10:48:11;20.40;;;16.90;;
77733;SDS011;66902;41.720;44.796;2023-11-19T10:50:45;23.20;;;18.70;;
77733;SDS011;66902;41.720;44.796;2023-11-19T10:53:21;20.70;;;16.00;;
77733;SDS011;66902;41.720;44.796;2023-11-19T10:55:56;21.70;;;16.20;;
77733;SDS011;66902;41.720;44.796;2023-11-19T10:58:31;26.20;;;16.40;;
77733;SDS011;66902;41.720;44.796;2023-11-19T11:01:09;24.30;;;14.60;;
77733;SDS011;66902;41.720;44.796;2023-11-19T11:03:45;21.20;;;12.70;;
77733;SDS011;66902;41.720;44.796;2023-11-19T11:06:21;25.10;;;12.40;;
77733;SDS011;66902;41.720;44.796;2023-11-19T11:08:55;19.40;;;12.10;;
77733;SDS011;66902;41.720;44.796;2023-11-19T11:11:29;11.70;;;10.20;;
77733;SDS011;66902;41.720;44.796;2023-11-19T11:14:03;17.40;;;15.60;;
77733;SDS011;66902;41.720;44.796;2023-11-19T11:16:38;26.50;;;19.40;;
77733;SDS011;66902;41.720;44.796;2023-11-19T11:19:16;23.00;;;18.20;;
77733;SDS011;66902;41.720;44.796;2023-11-19T11:21:50;30.70;;;20.10;;
77733;SDS011;66902;41.720;44.796;2023-11-19T11:24:30;28.10;;;22.00;;
77733;SDS011;66902;41.720;44.796;2023-11-19T11:27:20;31.60;;;21.30;;
77733;SDS011;66902;41.720;44.796;2023-11-19T11:30:13;33.20;;;23.50;;
77733;SDS011;66902;41.720;44.796;2023-11-19T11:33:02;28.30;;;23.70;;
77733;SDS011;66902;41.720;44.796;2023-11-19T11:35:44;32.40;;;22.00;;
77733;SDS011;66902;41.720;44.796;2023-11-19T11:38:25;31.60;;;25.20;;
77733;SDS011;66902;41.720;44.796;2023-11-19T11:41:19;36.40;;;29.30;;
77733;SDS011;66902;41.720;44.796;2023-11-19T11:43:59;32.40;;;23.50;;
77733;SDS011;66902;41.720;44.796;2023-11-19T11:49:27;25.00;;;21.30;;
77733;SDS011;66902;41.720;44.796;2023-11-19T11:52:02;22.70;;;20.40;;
77733;SDS011;66902;41.720;44.796;2023-11-19T11:54:37;32.60;;;22.20;;
77733;SDS011;66902;41.720;44.796;2023-11-19T11:57:11;24.50;;;22.00;;
77733;SDS011;66902;41.720;44.796;2023-11-19T11:59:50;29.40;;;22.30;;
77733;SDS011;66902;41.720;44.796;2023-11-19T12:02:24;29.30;;;24.00;;
77733;SDS011;66902;41.720;44.796;2023-11-19T12:04:58;35.80;;;27.10;;
77733;SDS011;66902;41.720;44.796;2023-11-19T12:07:35;31.70;;;25.50;;
77733;SDS011;66902;41.720;44.796;2023-11-19T12:10:11;35.70;;;26.30;;
77733;SDS011;66902;41.720;44.796;2023-11-19T12:12:46;28.60;;;24.30;;
77733;SDS011;66902;41.720;44.796;2023-11-19T12:15:20;35.70;;;26.80;;
77733;SDS011;66902;41.720;44.796;2023-11-19T12:17:55;40.40;;;31.60;;
77733;SDS011;66902;41.720;44.796;2023-11-19T12:20:29;32.10;;;26.40;;
77733;SDS011;66902;41.720;44.796;2023-11-19T12:23:07;45.10;;;31.50;;
77733;SDS011;66902;41.720;44.796;2023-11-19T12:25:41;33.90;;;27.50;;
77733;SDS011;66902;41.720;44.796;2023-11-19T12:28:16;39.00;;;29.60;;
77733;SDS011;66902;41.720;44.796;2023-11-19T12:30:49;49.30;;;35.90;;
77733;SDS011;66902;41.720;44.796;2023-11-19T12:33:23;40.40;;;30.40;;
77733;SDS011;66902;41.720;44.796;2023-11-19T12:35:56;34.80;;;28.30;;
77733;SDS011;66902;41.720;44.796;2023-11-19T12:38:35;44.30;;;27.60;;
77733;SDS011;66902;41.720;44.796;2023-11-19T12:41:09;41.00;;;26.10;;
77733;SDS011;66902;41.720;44.796;2023-11-19T12:43:47;31.50;;;25.00;;
77733;SDS011;66902;41.720;44.796;2023-11-19T12:46:22;35.30;;;27.00;;
77733;SDS011;66902;41.720;44.796;2023-11-19T12:48:57;36.70;;;27.80;;
77733;SDS011;66902;41.720;44.796;2023-11-19T12:51:32;36.10;;;27.90;;
77733;SDS011;66902;41.720;44.796;2023-11-19T12:54:07;36.00;;;28.90;;
77733;SDS011;66902;41.720;44.796;2023-11-19T12:56:40;34.90;;;27.20;;
77733;SDS011;66902;41.720;44.796;2023-11-19T12:59:23;45.10;;;28.00;;
77733;SDS011;66902;41.720;44.796;2023-11-19T13:01:58;47.90;;;33.90;;
77733;SDS011;66902;41.720;44.796;2023-11-19T13:04:32;50.30;;;33.30;;
77733;SDS011;66902;41.720;44.796;2023-11-19T13:07:06;47.50;;;32.40;;
77733;SDS011;66902;41.720;44.796;2023-11-19T13:09:40;54.70;;;34.00;;
77733;SDS011;66902;41.720;44.796;2023-11-19T13:12:14;45.90;;;32.60;;
77733;SDS011;66902;41.720;44.796;2023-11-19T13:14:48;48.40;;;36.50;;
77733;SDS011;66902;41.720;44.796;2023-11-19T13:17:21;47.40;;;36.30;;
77733;SDS011;66902;41.720;44.796;2023-11-19T13:19:56;50.90;;;39.00;;
77733;SDS011;66902;41.720;44.796;2023-11-19T13:22:32;52.00;;;39.90;;
77733;SDS011;66902;41.720;44.796;2023-11-19T13:25:07;57.20;;;42.70;;
77733;SDS011;66902;41.720;44.796;2023-11-19T13:27:42;57.10;;;41.50;;
77733;SDS011;66902;41.720;44.796;2023-11-19T13:30:19;72.30;;;43.80;;
77733;SDS011;66902;41.720;44.796;2023-11-19T13:32:57;62.10;;;46.30;;
77733;SDS011;66902;41.720;44.796;2023-11-19T13:35:31;59.50;;;43.60;;
77733;SDS011;66902;41.720;44.796;2023-11-19T13:38:05;65.00;;;48.40;;
77733;SDS011;66902;41.720;44.796;2023-11-19T13:40:39;62.80;;;42.80;;
77733;SDS011;66902;41.720;44.796;2023-11-19T13:43:12;60.60;;;45.20;;
77733;SDS011;66902;41.720;44.796;2023-11-19T13:45:46;60.10;;;46.70;;
77733;SDS011;66902;41.720;44.796;2023-11-19T13:48:21;98.30;;;64.80;;
77733;SDS011;66902;41.720;44.796;2023-11-19T13:50:56;77.60;;;58.80;;
77733;SDS011;66902;41.720;44.796;2023-11-19T13:53:30;51.50;;;41.80;;
77733;SDS011;66902;41.720;44.796;2023-11-19T13:56:08;61.40;;;44.90;;
77733;SDS011;66902;41.720;44.796;2023-11-19T13:58:41;50.20;;;44.10;;
77733;SDS011;66902;41.720;44.796;2023-11-19T14:01:15;62.60;;;47.30;;
77733;SDS011;66902;41.720;44.796;2023-11-19T14:03:50;61.40;;;49.70;;
77733;SDS011;66902;41.720;44.796;2023-11-19T14:06:24;65.50;;;50.20;;
77733;SDS011;66902;41.720;44.796;2023-11-19T14:08:58;63.10;;;50.10;;
77733;SDS011;66902;41.720;44.796;2023-11-19T14:11:31;67.70;;;51.20;;
77733;SDS011;66902;41.720;44.796;2023-11-19T14:14:05;63.20;;;45.70;;
77733;SDS011;66902;41.720;44.796;2023-11-19T14:16:38;75.80;;;54.40;;
77733;SDS011;66902;41.720;44.796;2023-11-19T14:19:12;90.70;;;54.80;;
77733;SDS011;66902;41.720;44.796;2023-11-19T14:21:46;82.20;;;60.60;;
77733;SDS011;66902;41.720;44.796;2023-11-19T14:24:19;84.20;;;59.40;;
77733;SDS011;66902;41.720;44.796;2023-11-19T14:26:54;81.40;;;61.10;;
77733;SDS011;66902;41.720;44.796;2023-11-19T14:29:28;103.90;;;70.00;;
77733;SDS011;66902;41.720;44.796;2023-11-19T14:32:04;81.80;;;69.00;;
77733;SDS011;66902;41.720;44.796;2023-11-19T14:34:38;93.40;;;71.60;;
77733;SDS011;66902;41.720;44.796;2023-11-19T14:37:12;104.10;;;75.50;;
77733;SDS011;66902;41.720;44.796;2023-11-19T14:39:45;105.40;;;78.40;;
77733;SDS011;66902;41.720;44.796;2023-11-19T14:42:20;104.40;;;74.40;;
77733;SDS011;66902;41.720;44.796;2023-11-19T14:44:55;114.40;;;74.50;;
77733;SDS011;66902;41.720;44.796;2023-11-19T14:47:28;90.70;;;71.30;;
77733;SDS011;66902;41.720;44.796;2023-11-19T14:50:02;93.50;;;67.50;;
77733;SDS011;66902;41.720;44.796;2023-11-19T14:52:38;94.30;;;65.20;;
77733;SDS011;66902;41.720;44.796;2023-11-19T14:55:12;80.90;;;65.30;;
77733;SDS011;66902;41.720;44.796;2023-11-19T14:57:46;106.10;;;67.70;;
77733;SDS011;66902;41.720;44.796;2023-11-19T15:00:36;80.10;;;64.10;;
77733;SDS011;66902;41.720;44.796;2023-11-19T15:03:11;88.30;;;64.90;;
77733;SDS011;66902;41.720;44.796;2023-11-19T15:05:46;88.40;;;63.90;;
77733;SDS011;66902;41.720;44.796;2023-11-19T15:08:21;87.70;;;68.20;;